sensor_id;sensor_type;location;lat;lon;timestamp;P1;durP1;ratioP1;P2;durP2;ratioP2
37231;SDS011;23125;48.156;15.954;2023-08-01T12:55:30;5.00;;;2.80;;
37231;SDS011;23125;48.156;15.954;2023-08-01T12:58:20;5.20;;;2.88;;
37231;SDS011;23125;48.156;15.954;2023-08-01T13:00:46;5.15;;;2.67;;
37231;SDS011;23125;48.156;15.954;2023-08-01T13:03:11;4.38;;;2.63;;
37231;SDS011;23125;48.156;15.954;2023-08-01T13:05:38;4.65;;;2.83;;
37231;SDS011;23125;48.156;15.954;2023-08-01T13:08:05;4.38;;;2.83;;
37231;SDS011;23125;48.156;15.954;2023-08-01T13:10:31;4.43;;;3.08;;
37231;SDS011;23125;48.156;15.954;2023-08-01T13:12:58;5.15;;;3.00;;
37231;SDS011;23125;48.156;15.954;2023-08-01T13:15:24;5.50;;;3.42;;
37231;SDS011;23125;48.156;15.954;2023-08-01T13:17:51;4.60;;;2.97;;
37231;SDS011;23125;48.156;15.954;2023-08-01T13:20:18;3.92;;;2.60;;
37231;SDS011;23125;48.156;15.954;2023-08-01T13:22:45;5.65;;;2.92;;
37231;SDS011;23125;48.156;15.954;2023-08-01T13:25:15;9.05;;;3.42;;
37231;SDS011;23125;48.156;15.954;2023-08-01T13:27:41;4.15;;;2.63;;
37231;SDS011;23125;48.156;15.954;2023-08-01T13:30:08;4.78;;;2.38;;
37231;SDS011;23125;48.156;15.954;2023-08-01T13:32:35;3.78;;;2.35;;
37231;SDS011;23125;48.156;15.954;2023-08-01T13:35:01;5.03;;;2.40;;
37231;SDS011;23125;48.156;15.954;2023-08-01T13:37:27;3.47;;;2.33;;
37231;SDS011;23125;48.156;15.954;2023-08-01T13:39:55;3.75;;;2.45;;
37231;SDS011;23125;48.156;15.954;2023-08-01T13:42:23;6.07;;;2.92;;
37231;SDS011;23125;48.156;15.954;2023-08-01T13:44:53;5.00;;;2.60;;
37231;SDS011;23125;48.156;15.954;2023-08-01T13:47:19;4.72;;;2.67;;
37231;SDS011;23125;48.156;15.954;2023-08-01T13:49:45;4.10;;;2.45;;
37231;SDS011;23125;48.156;15.954;2023-08-01T13:52:11;3.85;;;2.08;;
37231;SDS011;23125;48.156;15.954;2023-08-01T13:54:37;4.28;;;2.70;;
37231;SDS011;23125;48.156;15.954;2023-08-01T13:57:03;3.95;;;2.20;;
37231;SDS011;23125;48.156;15.954;2023-08-01T13:59:29;4.03;;;2.40;;
37231;SDS011;23125;48.156;15.954;2023-08-01T14:01:56;3.50;;;2.28;;
37231;SDS011;23125;48.156;15.954;2023-08-01T14:04:22;3.72;;;2.33;;
37231;SDS011;23125;48.156;15.954;2023-08-01T14:06:48;5.00;;;2.80;;
37231;SDS011;23125;48.156;15.954;2023-08-01T14:09:14;3.38;;;2.47;;
37231;SDS011;23125;48.156;15.954;2023-08-01T14:11:39;5.05;;;2.42;;
37231;SDS011;23125;48.156;15.954;2023-08-01T14:14:05;4.07;;;2.33;;
37231;SDS011;23125;48.156;15.954;2023-08-01T14:16:31;5.85;;;3.05;;
37231;SDS011;23125;48.156;15.954;2023-08-01T14:18:58;4.30;;;2.75;;
37231;SDS011;23125;48.156;15.954;2023-08-01T14:21:24;3.67;;;2.50;;
37231;SDS011;23125;48.156;15.954;2023-08-01T14:23:50;4.25;;;3.15;;
37231;SDS011;23125;48.156;15.954;2023-08-01T14:26:16;6.05;;;3.30;;
37231;SDS011;23125;48.156;15.954;2023-08-01T14:28:42;5.72;;;3.00;;
37231;SDS011;23125;48.156;15.954;2023-08-01T14:31:08;4.28;;;3.17;;
37231;SDS011;23125;48.156;15.954;2023-08-01T14:33:34;6.28;;;3.38;;
37231;SDS011;23125;48.156;15.954;2023-08-01T14:36:00;5.53;;;2.40;;
37231;SDS011;23125;48.156;15.954;2023-08-01T14:38:26;4.80;;;2.50;;
37231;SDS011;23125;48.156;15.954;2023-08-01T14:40:52;3.65;;;2.35;;
37231;SDS011;23125;48.156;15.954;2023-08-01T14:43:19;5.07;;;2.60;;
37231;SDS011;23125;48.156;15.954;2023-08-01T14:45:45;4.20;;;2.63;;
37231;SDS011;23125;48.156;15.954;2023-08-01T14:48:11;5.03;;;3.00;;
37231;SDS011;23125;48.156;15.954;2023-08-01T14:50:39;4.53;;;2.50;;
37231;SDS011;23125;48.156;15.954;2023-08-01T14:53:05;4.28;;;2.60;;
37231;SDS011;23125;48.156;15.954;2023-08-01T14:55:33;3.85;;;2.83;;
37231;SDS011;23125;48.156;15.954;2023-08-01T14:57:59;4.32;;;2.45;;
37231;SDS011;23125;48.156;15.954;2023-08-01T15:00:25;4.45;;;2.65;;
37231;SDS011;23125;48.156;15.954;2023-08-01T15:02:51;3.75;;;2.50;;
37231;SDS011;23125;48.156;15.954;2023-08-01T15:05:17;4.25;;;2.42;;
37231;SDS011;23125;48.156;15.954;2023-08-01T15:07:43;4.25;;;2.42;;
37231;SDS011;23125;48.156;15.954;2023-08-01T15:10:09;3.55;;;2.40;;
37231;SDS011;23125;48.156;15.954;2023-08-01T15:12:35;5.35;;;2.67;;
37231;SDS011;23125;48.156;15.954;2023-08-01T15:15:01;4.25;;;2.22;;
37231;SDS011;23125;48.156;15.954;2023-08-01T15:17:27;4.25;;;2.53;;
37231;SDS011;23125;48.156;15.954;2023-08-01T15:19:53;3.28;;;2.03;;
37231;SDS011;23125;48.156;15.954;2023-08-01T15:22:19;4.57;;;2.20;;
37231;SDS011;23125;48.156;15.954;2023-08-01T15:24:45;2.70;;;2.05;;
37231;SDS011;23125;48.156;15.954;2023-08-01T15:27:12;2.70;;;2.10;;
37231;SDS011;23125;48.156;15.954;2023-08-01T15:29:38;2.50;;;2.00;;
37231;SDS011;23125;48.156;15.954;2023-08-01T15:32:05;3.60;;;2.22;;
37231;SDS011;23125;48.156;15.954;2023-08-01T15:34:31;3.70;;;1.80;;
37231;SDS011;23125;48.156;15.954;2023-08-01T15:36:57;3.60;;;2.03;;
37231;SDS011;23125;48.156;15.954;2023-08-01T15:39:23;4.53;;;2.38;;
37231;SDS011;23125;48.156;15.954;2023-08-01T15:41:49;3.72;;;2.00;;
37231;SDS011;23125;48.156;15.954;2023-08-01T15:44:15;4.65;;;2.53;;
37231;SDS011;23125;48.156;15.954;2023-08-01T15:46:41;3.33;;;2.25;;
37231;SDS011;23125;48.156;15.954;2023-08-01T15:49:06;3.97;;;2.40;;
37231;SDS011;23125;48.156;15.954;2023-08-01T15:51:33;3.33;;;2.35;;
37231;SDS011;23125;48.156;15.954;2023-08-01T15:53:59;4.70;;;2.35;;
37231;SDS011;23125;48.156;15.954;2023-08-01T15:56:24;3.35;;;2.55;;
37231;SDS011;23125;48.156;15.954;2023-08-01T15:58:50;4.57;;;2.72;;
37231;SDS011;23125;48.156;15.954;2023-08-01T16:01:17;4.32;;;2.30;;
37231;SDS011;23125;48.156;15.954;2023-08-01T16:03:44;4.45;;;2.28;;
37231;SDS011;23125;48.156;15.954;2023-08-01T16:06:10;5.68;;;2.13;;
37231;SDS011;23125;48.156;15.954;2023-08-01T16:08:39;4.88;;;2.70;;
37231;SDS011;23125;48.156;15.954;2023-08-01T16:11:06;5.68;;;2.85;;
37231;SDS011;23125;48.156;15.954;2023-08-01T16:13:31;5.88;;;2.90;;
37231;SDS011;23125;48.156;15.954;2023-08-01T16:15:57;2.83;;;1.88;;
37231;SDS011;23125;48.156;15.954;2023-08-01T16:18:25;3.85;;;2.08;;
37231;SDS011;23125;48.156;15.954;2023-08-01T16:20:50;3.45;;;2.40;;
37231;SDS011;23125;48.156;15.954;2023-08-01T16:23:16;3.88;;;2.50;;
37231;SDS011;23125;48.156;15.954;2023-08-01T16:25:42;4.60;;;2.40;;
37231;SDS011;23125;48.156;15.954;2023-08-01T16:28:08;4.93;;;2.53;;
37231;SDS011;23125;48.156;15.954;2023-08-01T16:30:34;3.30;;;2.50;;
37231;SDS011;23125;48.156;15.954;2023-08-01T16:33:01;7.63;;;2.58;;
37231;SDS011;23125;48.156;15.954;2023-08-01T16:35:27;4.68;;;2.75;;
37231;SDS011;23125;48.156;15.954;2023-08-01T16:37:53;4.57;;;2.50;;
37231;SDS011;23125;48.156;15.954;2023-08-01T16:40:18;4.97;;;2.92;;
37231;SDS011;23125;48.156;15.954;2023-08-01T16:42:44;3.85;;;1.92;;
37231;SDS011;23125;48.156;15.954;2023-08-01T16:45:11;2.88;;;1.88;;
37231;SDS011;23125;48.156;15.954;2023-08-01T16:47:37;3.55;;;2.10;;
37231;SDS011;23125;48.156;15.954;2023-08-01T16:50:03;4.40;;;2.10;;
37231;SDS011;23125;48.156;15.954;2023-08-01T16:52:30;3.38;;;2.45;;
37231;SDS011;23125;48.156;15.954;2023-08-01T16:54:56;4.55;;;2.22;;
37231;SDS011;23125;48.156;15.954;2023-08-01T16:57:22;4.97;;;3.05;;
37231;SDS011;23125;48.156;15.954;2023-08-01T16:59:51;3.35;;;2.03;;
37231;SDS011;23125;48.156;15.954;2023-08-01T17:02:17;3.22;;;1.60;;
37231;SDS011;23125;48.156;15.954;2023-08-01T17:04:43;2.97;;;1.75;;
37231;SDS011;23125;48.156;15.954;2023-08-01T17:07:09;5.57;;;2.75;;
37231;SDS011;23125;48.156;15.954;2023-08-01T17:09:35;4.50;;;3.00;;
37231;SDS011;23125;48.156;15.954;2023-08-01T17:12:01;10.32;;;4.63;;
37231;SDS011;23125;48.156;15.954;2023-08-01T17:14:27;6.47;;;4.00;;
37231;SDS011;23125;48.156;15.954;2023-08-01T17:16:54;7.47;;;3.83;;
37231;SDS011;23125;48.156;15.954;2023-08-01T17:19:20;6.18;;;3.55;;
37231;SDS011;23125;48.156;15.954;2023-08-01T17:21:46;4.63;;;2.42;;
37231;SDS011;23125;48.156;15.954;2023-08-01T17:24:12;9.32;;;4.47;;
37231;SDS011;23125;48.156;15.954;2023-08-01T17:26:38;7.72;;;3.50;;
37231;SDS011;23125;48.156;15.954;2023-08-01T17:29:04;4.38;;;2.33;;
37231;SDS011;23125;48.156;15.954;2023-08-01T17:31:30;5.38;;;2.38;;
37231;SDS011;23125;48.156;15.954;2023-08-01T17:34:02;3.97;;;1.87;;
37231;SDS011;23125;48.156;15.954;2023-08-01T17:36:32;4.40;;;2.13;;
37231;SDS011;23125;48.156;15.954;2023-08-01T17:38:58;3.10;;;1.85;;
37231;SDS011;23125;48.156;15.954;2023-08-01T17:41:28;2.72;;;1.98;;
37231;SDS011;23125;48.156;15.954;2023-08-01T17:43:56;3.22;;;1.65;;
37231;SDS011;23125;48.156;15.954;2023-08-01T17:46:23;3.70;;;1.90;;
37231;SDS011;23125;48.156;15.954;2023-08-01T17:48:50;2.90;;;2.08;;
37231;SDS011;23125;48.156;15.954;2023-08-01T17:51:16;4.00;;;2.03;;
37231;SDS011;23125;48.156;15.954;2023-08-01T17:53:43;5.53;;;1.83;;
37231;SDS011;23125;48.156;15.954;2023-08-01T17:56:10;4.45;;;1.60;;
37231;SDS011;23125;48.156;15.954;2023-08-01T17:58:37;3.92;;;2.20;;
37231;SDS011;23125;48.156;15.954;2023-08-01T18:01:04;2.67;;;1.80;;
37231;SDS011;23125;48.156;15.954;2023-08-01T18:03:31;4.25;;;2.00;;
37231;SDS011;23125;48.156;15.954;2023-08-01T18:06:08;3.53;;;2.03;;
37231;SDS011;23125;48.156;15.954;2023-08-01T18:08:39;4.65;;;1.88;;
37231;SDS011;23125;48.156;15.954;2023-08-01T18:11:16;3.60;;;1.90;;
37231;SDS011;23125;48.156;15.954;2023-08-01T18:13:43;3.25;;;1.83;;
37231;SDS011;23125;48.156;15.954;2023-08-01T18:16:29;3.20;;;2.00;;
37231;SDS011;23125;48.156;15.954;2023-08-01T18:18:55;3.25;;;2.15;;
37231;SDS011;23125;48.156;15.954;2023-08-01T18:21:20;3.33;;;1.98;;
37231;SDS011;23125;48.156;15.954;2023-08-01T18:23:46;6.43;;;2.08;;
37231;SDS011;23125;48.156;15.954;2023-08-01T18:26:20;2.35;;;1.58;;
37231;SDS011;23125;48.156;15.954;2023-08-01T18:28:47;4.40;;;2.05;;
37231;SDS011;23125;48.156;15.954;2023-08-01T18:31:14;4.22;;;2.03;;
37231;SDS011;23125;48.156;15.954;2023-08-01T18:33:41;4.55;;;2.20;;
37231;SDS011;23125;48.156;15.954;2023-08-01T18:36:15;4.30;;;2.28;;
37231;SDS011;23125;48.156;15.954;2023-08-01T18:38:43;3.50;;;1.70;;
37231;SDS011;23125;48.156;15.954;2023-08-01T18:41:10;3.05;;;2.03;;
37231;SDS011;23125;48.156;15.954;2023-08-01T18:43:37;3.42;;;1.90;;
37231;SDS011;23125;48.156;15.954;2023-08-01T18:46:04;2.75;;;1.90;;
37231;SDS011;23125;48.156;15.954;2023-08-01T18:48:31;4.70;;;2.10;;
37231;SDS011;23125;48.156;15.954;2023-08-01T18:50:57;5.15;;;1.88;;
37231;SDS011;23125;48.156;15.954;2023-08-01T18:53:23;4.28;;;2.00;;
37231;SDS011;23125;48.156;15.954;2023-08-01T18:55:50;3.67;;;1.90;;
37231;SDS011;23125;48.156;15.954;2023-08-01T18:58:16;3.03;;;1.88;;
37231;SDS011;23125;48.156;15.954;2023-08-01T19:00:42;4.57;;;1.63;;
37231;SDS011;23125;48.156;15.954;2023-08-01T19:03:08;2.70;;;1.60;;
37231;SDS011;23125;48.156;15.954;2023-08-01T19:05:34;3.20;;;1.60;;
37231;SDS011;23125;48.156;15.954;2023-08-01T19:08:02;4.77;;;2.17;;
37231;SDS011;23125;48.156;15.954;2023-08-01T19:10:29;6.10;;;2.03;;
37231;SDS011;23125;48.156;15.954;2023-08-01T19:12:56;3.63;;;1.70;;
37231;SDS011;23125;48.156;15.954;2023-08-01T19:15:21;3.53;;;2.22;;
37231;SDS011;23125;48.156;15.954;2023-08-01T19:17:47;2.97;;;2.13;;
37231;SDS011;23125;48.156;15.954;2023-08-01T19:20:13;2.92;;;1.75;;
37231;SDS011;23125;48.156;15.954;2023-08-01T19:22:39;4.22;;;1.90;;
37231;SDS011;23125;48.156;15.954;2023-08-01T19:25:05;3.70;;;1.90;;
37231;SDS011;23125;48.156;15.954;2023-08-01T19:27:32;4.25;;;1.88;;
37231;SDS011;23125;48.156;15.954;2023-08-01T19:29:58;3.08;;;2.15;;
37231;SDS011;23125;48.156;15.954;2023-08-01T19:32:24;4.43;;;1.75;;
37231;SDS011;23125;48.156;15.954;2023-08-01T19:34:50;2.70;;;1.63;;
37231;SDS011;23125;48.156;15.954;2023-08-01T19:37:17;2.97;;;1.90;;
37231;SDS011;23125;48.156;15.954;2023-08-01T19:39:44;4.88;;;1.90;;
37231;SDS011;23125;48.156;15.954;2023-08-01T19:42:10;3.47;;;1.83;;
37231;SDS011;23125;48.156;15.954;2023-08-01T19:44:36;3.53;;;1.73;;
37231;SDS011;23125;48.156;15.954;2023-08-01T19:47:02;2.65;;;2.20;;
37231;SDS011;23125;48.156;15.954;2023-08-01T19:49:31;3.60;;;2.20;;
37231;SDS011;23125;48.156;15.954;2023-08-01T19:51:57;3.45;;;1.75;;
37231;SDS011;23125;48.156;15.954;2023-08-01T19:54:23;3.90;;;1.77;;
37231;SDS011;23125;48.156;15.954;2023-08-01T19:56:49;4.35;;;2.28;;
37231;SDS011;23125;48.156;15.954;2023-08-01T19:59:15;4.00;;;1.70;;
37231;SDS011;23125;48.156;15.954;2023-08-01T20:01:41;3.45;;;1.90;;
37231;SDS011;23125;48.156;15.954;2023-08-01T20:04:07;5.35;;;1.92;;
37231;SDS011;23125;48.156;15.954;2023-08-01T20:06:34;3.65;;;1.77;;
37231;SDS011;23125;48.156;15.954;2023-08-01T20:09:00;4.63;;;2.45;;
37231;SDS011;23125;48.156;15.954;2023-08-01T20:11:26;6.43;;;2.10;;
37231;SDS011;23125;48.156;15.954;2023-08-01T20:13:51;4.75;;;2.03;;
37231;SDS011;23125;48.156;15.954;2023-08-01T20:16:18;3.72;;;2.13;;
37231;SDS011;23125;48.156;15.954;2023-08-01T20:18:45;4.57;;;2.05;;
37231;SDS011;23125;48.156;15.954;2023-08-01T20:21:11;2.88;;;2.20;;
37231;SDS011;23125;48.156;15.954;2023-08-01T20:23:39;3.40;;;2.22;;
37231;SDS011;23125;48.156;15.954;2023-08-01T20:26:05;4.50;;;2.10;;
37231;SDS011;23125;48.156;15.954;2023-08-01T20:28:32;5.72;;;2.60;;
37231;SDS011;23125;48.156;15.954;2023-08-01T20:31:02;4.72;;;2.33;;
37231;SDS011;23125;48.156;15.954;2023-08-01T20:33:34;4.50;;;2.28;;
37231;SDS011;23125;48.156;15.954;2023-08-01T20:36:00;3.17;;;2.20;;
37231;SDS011;23125;48.156;15.954;2023-08-01T20:38:27;5.28;;;2.05;;
37231;SDS011;23125;48.156;15.954;2023-08-01T20:40:53;4.28;;;2.33;;
37231;SDS011;23125;48.156;15.954;2023-08-01T20:43:20;3.83;;;2.20;;
37231;SDS011;23125;48.156;15.954;2023-08-01T20:45:48;3.42;;;1.98;;
37231;SDS011;23125;48.156;15.954;2023-08-01T20:48:15;3.80;;;2.03;;
37231;SDS011;23125;48.156;15.954;2023-08-01T20:50:41;3.03;;;1.98;;
37231;SDS011;23125;48.156;15.954;2023-08-01T20:53:08;3.78;;;2.10;;
37231;SDS011;23125;48.156;15.954;2023-08-01T20:55:34;2.90;;;2.10;;
37231;SDS011;23125;48.156;15.954;2023-08-01T20:58:01;4.03;;;1.88;;
37231;SDS011;23125;48.156;15.954;2023-08-01T21:00:27;4.63;;;2.33;;
37231;SDS011;23125;48.156;15.954;2023-08-01T21:02:52;4.00;;;2.28;;
37231;SDS011;23125;48.156;15.954;2023-08-01T21:05:19;5.78;;;3.42;;
37231;SDS011;23125;48.156;15.954;2023-08-01T21:07:45;3.78;;;1.92;;
37231;SDS011;23125;48.156;15.954;2023-08-01T21:10:11;3.25;;;2.10;;
37231;SDS011;23125;48.156;15.954;2023-08-01T21:12:38;4.03;;;2.78;;
37231;SDS011;23125;48.156;15.954;2023-08-01T21:15:04;2.65;;;2.35;;
37231;SDS011;23125;48.156;15.954;2023-08-01T21:17:30;6.05;;;2.92;;
37231;SDS011;23125;48.156;15.954;2023-08-01T21:19:56;5.45;;;2.58;;
37231;SDS011;23125;48.156;15.954;2023-08-01T21:22:22;5.60;;;2.83;;
37231;SDS011;23125;48.156;15.954;2023-08-01T21:24:48;4.72;;;2.60;;
37231;SDS011;23125;48.156;15.954;2023-08-01T21:27:14;4.18;;;2.30;;
37231;SDS011;23125;48.156;15.954;2023-08-01T21:29:39;5.28;;;2.22;;
37231;SDS011;23125;48.156;15.954;2023-08-01T21:32:05;3.47;;;2.80;;
37231;SDS011;23125;48.156;15.954;2023-08-01T21:34:31;4.22;;;2.13;;
37231;SDS011;23125;48.156;15.954;2023-08-01T21:36:57;3.17;;;1.90;;
37231;SDS011;23125;48.156;15.954;2023-08-01T21:39:23;2.88;;;1.63;;
37231;SDS011;23125;48.156;15.954;2023-08-01T21:41:49;2.35;;;1.52;;
37231;SDS011;23125;48.156;15.954;2023-08-01T21:44:15;3.72;;;1.60;;
37231;SDS011;23125;48.156;15.954;2023-08-01T21:46:40;2.03;;;1.40;;
37231;SDS011;23125;48.156;15.954;2023-08-01T21:49:06;3.08;;;1.70;;
37231;SDS011;23125;48.156;15.954;2023-08-01T21:51:32;2.13;;;1.60;;
37231;SDS011;23125;48.156;15.954;2023-08-01T21:53:58;2.65;;;1.90;;
37231;SDS011;23125;48.156;15.954;2023-08-01T21:56:23;4.72;;;3.25;;
37231;SDS011;23125;48.156;15.954;2023-08-01T21:58:49;2.53;;;1.50;;
37231;SDS011;23125;48.156;15.954;2023-08-01T22:01:15;3.03;;;1.58;;
37231;SDS011;23125;48.156;15.954;2023-08-01T22:03:41;4.72;;;1.63;;
37231;SDS011;23125;48.156;15.954;2023-08-01T22:06:07;2.92;;;1.55;;
37231;SDS011;23125;48.156;15.954;2023-08-01T22:08:33;2.70;;;1.52;;
37231;SDS011;23125;48.156;15.954;2023-08-01T22:10:58;2.90;;;1.52;;
37231;SDS011;23125;48.156;15.954;2023-08-01T22:13:24;4.70;;;1.23;;
37231;SDS011;23125;48.156;15.954;2023-08-01T22:15:50;2.60;;;1.40;;
37231;SDS011;23125;48.156;15.954;2023-08-01T22:18:17;2.88;;;1.50;;
37231;SDS011;23125;48.156;15.954;2023-08-01T22:20:55;1.63;;;1.20;;
37231;SDS011;23125;48.156;15.954;2023-08-01T22:23:22;3.15;;;1.30;;
37231;SDS011;23125;48.156;15.954;2023-08-01T22:25:49;7.60;;;1.40;;
37231;SDS011;23125;48.156;15.954;2023-08-01T22:28:18;4.97;;;1.30;;
37231;SDS011;23125;48.156;15.954;2023-08-01T22:30:46;3.72;;;1.58;;
37231;SDS011;23125;48.156;15.954;2023-08-01T22:33:13;3.28;;;1.52;;
37231;SDS011;23125;48.156;15.954;2023-08-01T22:35:39;2.80;;;1.38;;
37231;SDS011;23125;48.156;15.954;2023-08-01T22:38:05;6.45;;;1.30;;
37231;SDS011;23125;48.156;15.954;2023-08-01T22:40:31;1.88;;;1.10;;
37231;SDS011;23125;48.156;15.954;2023-08-01T22:42:57;2.67;;;1.23;;
37231;SDS011;23125;48.156;15.954;2023-08-01T22:45:23;3.75;;;1.67;;
37231;SDS011;23125;48.156;15.954;2023-08-01T22:47:51;3.72;;;1.10;;
37231;SDS011;23125;48.156;15.954;2023-08-01T22:50:18;3.55;;;1.05;;
37231;SDS011;23125;48.156;15.954;2023-08-01T22:52:44;2.38;;;1.45;;
37231;SDS011;23125;48.156;15.954;2023-08-01T22:55:10;1.83;;;1.30;;
37231;SDS011;23125;48.156;15.954;2023-08-01T22:57:36;7.60;;;1.08;;
37231;SDS011;23125;48.156;15.954;2023-08-01T23:00:03;1.95;;;1.20;;
37231;SDS011;23125;48.156;15.954;2023-08-01T23:02:30;2.05;;;1.33;;
37231;SDS011;23125;48.156;15.954;2023-08-01T23:04:56;2.13;;;1.00;;
37231;SDS011;23125;48.156;15.954;2023-08-01T23:07:22;1.95;;;1.17;;
37231;SDS011;23125;48.156;15.954;2023-08-01T23:09:48;3.08;;;1.10;;
37231;SDS011;23125;48.156;15.954;2023-08-01T23:12:16;4.30;;;1.20;;
37231;SDS011;23125;48.156;15.954;2023-08-01T23:14:42;2.72;;;1.40;;
37231;SDS011;23125;48.156;15.954;2023-08-01T23:17:07;4.03;;;1.10;;
37231;SDS011;23125;48.156;15.954;2023-08-01T23:19:35;1.50;;;1.25;;
37231;SDS011;23125;48.156;15.954;2023-08-01T23:22:00;4.68;;;1.15;;
37231;SDS011;23125;48.156;15.954;2023-08-01T23:24:26;5.40;;;1.63;;
37231;SDS011;23125;48.156;15.954;2023-08-01T23:26:52;1.98;;;1.40;;
37231;SDS011;23125;48.156;15.954;2023-08-01T23:29:18;2.28;;;1.10;;
37231;SDS011;23125;48.156;15.954;2023-08-01T23:31:44;4.82;;;1.55;;
37231;SDS011;23125;48.156;15.954;2023-08-01T23:34:10;4.43;;;1.15;;
37231;SDS011;23125;48.156;15.954;2023-08-01T23:36:35;2.10;;;1.05;;
37231;SDS011;23125;48.156;15.954;2023-08-01T23:39:01;1.60;;;1.00;;
37231;SDS011;23125;48.156;15.954;2023-08-01T23:41:28;2.53;;;0.90;;
37231;SDS011;23125;48.156;15.954;2023-08-01T23:43:53;2.00;;;1.00;;
37231;SDS011;23125;48.156;15.954;2023-08-01T23:46:22;2.22;;;1.10;;
37231;SDS011;23125;48.156;15.954;2023-08-01T23:48:49;1.88;;;0.93;;
37231;SDS011;23125;48.156;15.954;2023-08-01T23:51:15;2.33;;;0.80;;
37231;SDS011;23125;48.156;15.954;2023-08-01T23:53:42;1.90;;;1.05;;
37231;SDS011;23125;48.156;15.954;2023-08-01T23:56:08;2.90;;;1.10;;
37231;SDS011;23125;48.156;15.954;2023-08-01T23:58:34;1.55;;;1.23;;
